Time;durP1;ratioP1;P1;durP2;ratioP2;P2;SDS_P1;SDS_P2;PMS_P1;PMS_P2;Temp;Humidity;BMP_temperature;BMP_pressure;BME280_temperature;BME280_humidity;BME280_pressure;Samples;Min_cycle;Max_cycle;Signal;HPM_P1;HPM_P2
2021/03/24 00:02:04;;;;;;;12.13;9.83;;;;;;;;;;5048090;28;20326;-61
2021/03/24 00:04:30;;;;;;;14.23;9.37;;;;;;;;;;5047914;28;20645;-61
2021/03/24 00:06:56;;;;;;;9.77;8.57;;;;;;;;;;5049665;28;20186;-61
2021/03/24 00:09:22;;;;;;;11.13;8.90;;;;;;;;;;5036377;28;20660;-62
2021/03/24 00:11:48;;;;;;;9.47;8.47;;;;;;;;;;5040105;28;20207;-62
2021/03/24 00:14:14;;;;;;;11.13;9.07;;;;;;;;;;5050621;28;20211;-61
2021/03/24 00:16:40;;;;;;;11.97;9.23;;;;;;;;;;5040933;28;20257;-61
2021/03/24 00:19:07;;;;;;;11.80;9.30;;;;;;;;;;5061517;28;20255;-61
2021/03/24 00:21:33;;;;;;;13.80;9.00;;;;;;;;;;5039473;28;20209;-61
2021/03/24 00:23:59;;;;;;;10.13;8.80;;;;;;;;;;5034865;28;20286;-61
2021/03/24 00:26:25;;;;;;;11.30;8.77;;;;;;;;;;5038450;28;20182;-61
2021/03/24 00:28:53;;;;;;;13.60;9.70;;;;;;;;;;5046579;28;20228;-61
2021/03/24 00:31:19;;;;;;;11.20;9.93;;;;;;;;;;5015676;28;20177;-61
2021/03/24 00:33:45;;;;;;;13.20;10.00;;;;;;;;;;5040177;28;20418;-61
2021/03/24 00:36:11;;;;;;;11.93;9.40;;;;;;;;;;5032947;28;20554;-61
2021/03/24 00:38:37;;;;;;;12.63;9.33;;;;;;;;;;5038195;28;20236;-61
2021/03/24 00:41:03;;;;;;;13.93;10.10;;;;;;;;;;5040243;28;20265;-62
2021/03/24 00:43:29;;;;;;;10.67;9.13;;;;;;;;;;5034129;28;20193;-61
2021/03/24 00:45:55;;;;;;;13.80;9.57;;;;;;;;;;5047045;28;20181;-61
2021/03/24 00:48:24;;;;;;;11.03;9.37;;;;;;;;;;5025683;28;20178;-61
2021/03/24 00:50:50;;;;;;;11.50;9.23;;;;;;;;;;5045630;28;20244;-61
2021/03/24 00:53:16;;;;;;;10.63;9.03;;;;;;;;;;5050452;28;20555;-61
2021/03/24 00:55:43;;;;;;;12.53;9.57;;;;;;;;;;5038905;28;20271;-63
2021/03/24 00:58:09;;;;;;;12.63;9.43;;;;;;;;;;5033304;28;20184;-61
2021/03/24 01:00:36;;;;;;;10.57;8.90;;;;;;;;;;5018398;28;20189;-60
2021/03/24 01:03:02;;;;;;;14.43;10.10;;;;;;;;;;5052419;28;20665;-61
2021/03/24 01:05:28;;;;;;;11.53;9.53;;;;;;;;;;5035599;28;20552;-61
2021/03/24 01:07:56;;;;;;;12.53;9.60;;;;;;;;;;5038134;28;20183;-61
2021/03/24 01:10:41;;;;;;;11.20;9.70;;;;;;;;;;5047884;28;20287;-61
2021/03/24 01:13:07;;;;;;;13.40;9.97;;;;;;;;;;5041737;28;20173;-61
2021/03/24 01:15:33;;;;;;;17.23;10.57;;;;;;;;;;5039407;28;20182;-61
2021/03/24 01:18:00;;;;;;;13.47;10.03;;;;;;;;;;5039007;28;20248;-61
2021/03/24 01:20:29;;;;;;;13.40;10.60;;;;;;;;;;5042520;28;20192;-61
2021/03/24 01:22:55;;;;;;;14.30;10.37;;;;;;;;;;5031452;28;20173;-61
2021/03/24 01:25:22;;;;;;;13.50;10.70;;;;;;;;;;5043247;28;20192;-61
2021/03/24 01:27:48;;;;;;;11.23;9.53;;;;;;;;;;5050283;28;20502;-63
2021/03/24 01:30:15;;;;;;;15.67;11.03;;;;;;;;;;5039342;28;20232;-60
2021/03/24 01:32:41;;;;;;;17.47;11.77;;;;;;;;;;5046726;28;20518;-60
2021/03/24 01:35:08;;;;;;;15.20;10.83;;;;;;;;;;5045052;28;20188;-61
2021/03/24 01:37:37;;;;;;;13.03;9.83;;;;;;;;;;5049541;28;20229;-60
2021/03/24 01:40:05;;;;;;;11.97;10.50;;;;;;;;;;5046760;28;20197;-61
2021/03/24 01:42:31;;;;;;;12.20;10.17;;;;;;;;;;5056716;28;20696;-60
2021/03/24 01:45:17;;;;;;;15.50;11.07;;;;;;;;;;5041876;28;20219;-61
2021/03/24 01:47:44;;;;;;;14.83;11.57;;;;;;;;;;5002275;28;20658;-62
2021/03/24 01:50:14;;;;;;;13.40;10.67;;;;;;;;;;5039667;28;20237;-61
2021/03/24 01:52:40;;;;;;;19.07;11.30;;;;;;;;;;5050275;28;20217;-61
2021/03/24 01:55:06;;;;;;;15.13;10.57;;;;;;;;;;5039389;28;20192;-61
2021/03/24 01:57:32;;;;;;;13.67;11.07;;;;;;;;;;5027223;28;20205;-61
2021/03/24 01:59:58;;;;;;;13.53;11.30;;;;;;;;;;5034039;28;20201;-61
2021/03/24 02:02:27;;;;;;;14.70;10.87;;;;;;;;;;5033695;28;20186;-61
2021/03/24 02:04:53;;;;;;;11.47;10.07;;;;;;;;;;5022261;28;20468;-60
2021/03/24 02:07:22;;;;;;;12.13;10.83;;;;;;;;;;5049731;28;20187;-61
2021/03/24 02:10:09;;;;;;;14.30;11.50;;;;;;;;;;5038123;28;20185;-63
2021/03/24 02:12:39;;;;;;;15.20;10.73;;;;;;;;;;5026646;28;20194;-61
2021/03/24 02:15:10;;;;;;;14.03;10.70;;;;;;;;;;5023850;28;20268;-61
2021/03/24 02:17:39;;;;;;;14.37;11.87;;;;;;;;;;5031941;28;20193;-60
2021/03/24 02:20:11;;;;;;;16.47;12.77;;;;;;;;;;5030208;28;20522;-61
2021/03/24 02:22:39;;;;;;;16.03;12.27;;;;;;;;;;5019610;28;20599;-61
2021/03/24 02:25:11;;;;;;;12.73;11.40;;;;;;;;;;5032329;28;20704;-61
2021/03/24 02:27:39;;;;;;;14.93;11.63;;;;;;;;;;5041614;28;20172;-61
2021/03/24 02:30:24;;;;;;;16.50;10.70;;;;;;;;;;5042428;28;20181;-61
2021/03/24 02:32:51;;;;;;;14.40;11.90;;;;;;;;;;5043177;28;20173;-62
2021/03/24 02:35:21;;;;;;;14.87;11.43;;;;;;;;;;5030014;28;20173;-61
2021/03/24 02:37:47;;;;;;;12.30;11.00;;;;;;;;;;5013926;28;20224;-61
2021/03/24 02:40:18;;;;;;;16.37;12.00;;;;;;;;;;5047245;28;20178;-61
2021/03/24 02:42:45;;;;;;;14.30;11.20;;;;;;;;;;5036104;28;20633;-61
2021/03/24 02:45:13;;;;;;;14.87;11.07;;;;;;;;;;5041007;28;20206;-61
2021/03/24 02:47:41;;;;;;;14.17;11.07;;;;;;;;;;5030514;28;20192;-61
2021/03/24 02:50:08;;;;;;;11.87;10.57;;;;;;;;;;5035314;28;20691;-61
2021/03/24 02:52:34;;;;;;;13.73;10.77;;;;;;;;;;5048219;28;20272;-62
2021/03/24 02:55:01;;;;;;;14.33;11.43;;;;;;;;;;5033837;28;21700;-61
2021/03/24 02:57:27;;;;;;;15.23;11.87;;;;;;;;;;5030147;28;20189;-61
2021/03/24 02:59:53;;;;;;;14.57;11.40;;;;;;;;;;5035837;28;20209;-61
2021/03/24 03:02:21;;;;;;;14.93;11.00;;;;;;;;;;5029410;28;20272;-62
2021/03/24 03:04:49;;;;;;;13.80;10.50;;;;;;;;;;5037922;28;20196;-61
2021/03/24 03:07:24;;;;;;;13.43;11.10;;;;;;;;;;5036368;28;20532;-61
2021/03/24 03:09:57;;;;;;;12.73;11.00;;;;;;;;;;5035301;28;20192;-61
2021/03/24 03:12:35;;;;;;;12.70;10.43;;;;;;;;;;5029138;28;20173;-61
2021/03/24 03:15:03;;;;;;;16.47;10.67;;;;;;;;;;5018280;28;20189;-61
2021/03/24 03:17:41;;;;;;;13.27;10.30;;;;;;;;;;5012870;28;20189;-61
2021/03/24 03:20:10;;;;;;;14.70;11.27;;;;;;;;;;5037924;28;20176;-61
2021/03/24 03:22:38;;;;;;;15.83;11.70;;;;;;;;;;5045780;28;20200;-61
2021/03/24 03:25:24;;;;;;;14.23;10.93;;;;;;;;;;5033037;28;20196;-61
2021/03/24 03:27:53;;;;;;;15.93;11.67;;;;;;;;;;5047718;28;20258;-61
2021/03/24 03:30:20;;;;;;;13.23;10.87;;;;;;;;;;5014225;28;20192;-62
2021/03/24 03:32:48;;;;;;;16.30;11.70;;;;;;;;;;5029022;28;20173;-61
2021/03/24 03:35:17;;;;;;;14.37;10.43;;;;;;;;;;5028597;28;20214;-61
2021/03/24 03:37:43;;;;;;;14.83;12.03;;;;;;;;;;5031685;28;20234;-61
2021/03/24 03:40:11;;;;;;;14.80;11.77;;;;;;;;;;5033964;28;20228;-62
2021/03/24 03:42:38;;;;;;;15.33;10.87;;;;;;;;;;5033643;28;20461;-61
2021/03/24 03:45:05;;;;;;;16.60;12.20;;;;;;;;;;5046349;28;20652;-61
2021/03/24 03:47:31;;;;;;;14.83;11.63;;;;;;;;;;5034932;28;20644;-61
2021/03/24 03:49:57;;;;;;;12.63;10.23;;;;;;;;;;5049840;28;20450;-61
2021/03/24 03:52:35;;;;;;;15.00;11.30;;;;;;;;;;5025190;28;20178;-61
2021/03/24 03:55:15;;;;;;;12.97;10.97;;;;;;;;;;5044558;28;20790;-61
2021/03/24 03:57:47;;;;;;;14.13;11.13;;;;;;;;;;5018100;28;20180;-61
2021/03/24 04:00:13;;;;;;;13.07;10.73;;;;;;;;;;5036931;28;20613;-61
2021/03/24 04:02:44;;;;;;;15.13;10.90;;;;;;;;;;5036070;28;20719;-63
2021/03/24 04:05:14;;;;;;;14.77;11.00;;;;;;;;;;5041941;28;20499;-61
2021/03/24 04:07:43;;;;;;;14.00;10.83;;;;;;;;;;5051892;28;20976;-61
2021/03/24 04:10:10;;;;;;;13.70;11.03;;;;;;;;;;5029197;28;20411;-61
2021/03/24 04:12:38;;;;;;;13.80;11.73;;;;;;;;;;5037056;28;20432;-61
2021/03/24 04:15:06;;;;;;;13.90;11.13;;;;;;;;;;5032083;28;20189;-61
2021/03/24 04:17:36;;;;;;;12.07;10.40;;;;;;;;;;5051701;28;20511;-61
2021/03/24 04:20:04;;;;;;;16.07;11.67;;;;;;;;;;5030055;28;20468;-61
2021/03/24 04:22:32;;;;;;;15.50;11.03;;;;;;;;;;5051513;28;20185;-62
2021/03/24 04:24:59;;;;;;;16.70;12.27;;;;;;;;;;5046978;28;20745;-61
2021/03/24 04:27:27;;;;;;;15.00;11.30;;;;;;;;;;5015381;28;20190;-62
2021/03/24 04:29:58;;;;;;;13.40;10.73;;;;;;;;;;5040812;28;20438;-61
2021/03/24 04:32:24;;;;;;;13.23;10.67;;;;;;;;;;5034343;28;20427;-61
2021/03/24 04:34:50;;;;;;;13.07;10.93;;;;;;;;;;5041739;28;20431;-63
2021/03/24 04:37:25;;;;;;;14.73;10.13;;;;;;;;;;5033291;28;21049;-61
2021/03/24 04:39:51;;;;;;;12.37;10.50;;;;;;;;;;5038055;28;20196;-64
2021/03/24 04:42:30;;;;;;;11.97;10.27;;;;;;;;;;5042275;28;20463;-61
2021/03/24 04:44:58;;;;;;;16.97;12.10;;;;;;;;;;5043589;28;20215;-61
2021/03/24 04:47:26;;;;;;;13.53;10.37;;;;;;;;;;5034047;28;20902;-61
2021/03/24 04:49:52;;;;;;;14.03;10.90;;;;;;;;;;5043789;28;20201;-61
2021/03/24 04:52:20;;;;;;;15.70;10.60;;;;;;;;;;5047592;28;20486;-61
2021/03/24 04:54:47;;;;;;;12.37;10.40;;;;;;;;;;5017059;28;20178;-61
2021/03/24 04:57:16;;;;;;;14.23;11.00;;;;;;;;;;5013456;28;20615;-61
2021/03/24 04:59:45;;;;;;;14.57;10.77;;;;;;;;;;5028846;28;20432;-61
2021/03/24 05:02:16;;;;;;;14.37;11.77;;;;;;;;;;5032027;28;20220;-62
2021/03/24 05:04:51;;;;;;;13.70;10.47;;;;;;;;;;5031661;28;20456;-61
2021/03/24 05:07:38;;;;;;;14.67;10.40;;;;;;;;;;5050123;28;20423;-61
2021/03/24 05:10:07;;;;;;;12.20;10.20;;;;;;;;;;5021837;28;20271;-61
2021/03/24 05:12:37;;;;;;;12.40;9.70;;;;;;;;;;5048988;28;20591;-61
2021/03/24 05:15:03;;;;;;;13.67;11.60;;;;;;;;;;5039006;28;20420;-61
2021/03/24 05:17:31;;;;;;;14.73;10.73;;;;;;;;;;5042549;28;20769;-61
2021/03/24 05:19:58;;;;;;;13.60;10.53;;;;;;;;;;5034794;28;20200;-61
2021/03/24 05:22:31;;;;;;;14.17;10.53;;;;;;;;;;5018389;28;20507;-61
2021/03/24 05:25:01;;;;;;;13.03;10.77;;;;;;;;;;5039455;28;20484;-61
2021/03/24 05:27:33;;;;;;;13.33;11.13;;;;;;;;;;5032042;28;20532;-61
2021/03/24 05:30:07;;;;;;;13.57;11.10;;;;;;;;;;5034399;28;20420;-61
2021/03/24 05:32:36;;;;;;;13.13;10.53;;;;;;;;;;5056872;28;20418;-61
2021/03/24 05:35:07;;;;;;;14.37;10.87;;;;;;;;;;5037965;28;20435;-61
2021/03/24 05:37:33;;;;;;;13.70;11.20;;;;;;;;;;5041255;28;20459;-62
2021/03/24 05:40:11;;;;;;;12.67;10.23;;;;;;;;;;5043446;28;20435;-61
2021/03/24 05:42:48;;;;;;;14.53;11.03;;;;;;;;;;5048371;28;20443;-61
2021/03/24 05:45:24;;;;;;;16.17;9.87;;;;;;;;;;5032755;28;20458;-61
2021/03/24 05:48:09;;;;;;;17.47;11.03;;;;;;;;;;5046579;28;20435;-62
2021/03/24 05:50:41;;;;;;;13.03;10.40;;;;;;;;;;5012470;28;20987;-62
2021/03/24 05:53:26;;;;;;;14.27;11.40;;;;;;;;;;5043381;28;20683;-61
2021/03/24 05:55:55;;;;;;;14.77;10.00;;;;;;;;;;5042793;28;20423;-61
2021/03/24 05:58:27;;;;;;;16.60;11.30;;;;;;;;;;5037392;28;20826;-63
2021/03/24 06:00:59;;;;;;;13.63;11.33;;;;;;;;;;5047112;28;20410;-61
2021/03/24 06:03:27;;;;;;;14.57;10.77;;;;;;;;;;5046051;28;20213;-61
2021/03/24 06:06:07;;;;;;;14.07;10.67;;;;;;;;;;5045596;28;20417;-61
2021/03/24 06:08:45;;;;;;;13.67;10.00;;;;;;;;;;5043401;28;20797;-61
2021/03/24 06:11:29;;;;;;;15.90;10.93;;;;;;;;;;5041851;28;20407;-62
2021/03/24 06:14:07;;;;;;;14.83;11.07;;;;;;;;;;5040539;28;20515;-61
2021/03/24 06:16:52;;;;;;;15.00;11.27;;;;;;;;;;5015063;28;20827;-61
2021/03/24 06:19:24;;;;;;;12.80;10.30;;;;;;;;;;5045634;28;20977;-61
2021/03/24 06:22:08;;;;;;;12.27;10.07;;;;;;;;;;5046888;28;20435;-61
2021/03/24 06:24:34;;;;;;;14.80;11.17;;;;;;;;;;5047620;28;20530;-61
2021/03/24 06:27:07;;;;;;;15.17;10.30;;;;;;;;;;5047548;28;20180;-62
2021/03/24 06:29:46;;;;;;;14.13;11.07;;;;;;;;;;5041770;28;20511;-61
2021/03/24 06:32:33;;;;;;;17.00;11.83;;;;;;;;;;5046894;28;20895;-61
2021/03/24 06:35:31;;;;;;;14.23;10.80;;;;;;;;;;5046207;28;20427;-62
2021/03/24 06:37:57;;;;;;;16.30;12.90;;;;;;;;;;5012968;28;20472;-62
2021/03/24 06:40:23;;;;;;;18.47;12.00;;;;;;;;;;5032838;28;20427;-62
2021/03/24 06:43:08;;;;;;;15.40;11.53;;;;;;;;;;5017868;28;20556;-62
2021/03/24 06:45:57;;;;;;;15.97;12.57;;;;;;;;;;5029908;28;20186;-62
2021/03/24 06:48:26;;;;;;;23.40;14.77;;;;;;;;;;4998183;28;20427;-60
2021/03/24 06:51:11;;;;;;;19.57;14.50;;;;;;;;;;5047319;28;20451;-63
2021/03/24 06:53:55;;;;;;;22.07;14.93;;;;;;;;;;5019906;28;20424;-64
2021/03/24 06:56:40;;;;;;;20.53;13.83;;;;;;;;;;5040575;28;20957;-62
2021/03/24 06:59:21;;;;;;;21.80;15.53;;;;;;;;;;5049373;28;20481;-62
2021/03/24 07:02:06;;;;;;;21.70;14.27;;;;;;;;;;5031451;28;20412;-62
2021/03/24 07:04:43;;;;;;;23.23;14.13;;;;;;;;;;5045379;28;20466;-62
2021/03/24 07:07:09;;;;;;;19.03;13.87;;;;;;;;;;5047492;28;20415;-62
2021/03/24 07:09:44;;;;;;;19.80;14.00;;;;;;;;;;5025427;28;20416;-61
2021/03/24 07:12:10;;;;;;;21.63;14.20;;;;;;;;;;5021160;28;20256;-60
2021/03/24 07:14:36;;;;;;;24.70;16.43;;;;;;;;;;5046349;28;20416;-60
2021/03/24 07:17:21;;;;;;;25.13;16.30;;;;;;;;;;5042230;28;20999;-60
2021/03/24 07:20:06;;;;;;;20.63;15.43;;;;;;;;;;5048382;28;20609;-61
2021/03/24 07:22:38;;;;;;;23.63;15.77;;;;;;;;;;5025044;28;20417;-60
2021/03/24 07:25:27;;;;;;;23.20;15.90;;;;;;;;;;5048026;28;20639;-60
2021/03/24 07:28:22;;;;;;;25.77;15.60;;;;;;;;;;5052587;28;20419;-59
2021/03/24 07:31:07;;;;;;;22.13;14.33;;;;;;;;;;5052717;28;20419;-60
2021/03/24 07:33:41;;;;;;;22.27;14.87;;;;;;;;;;5036093;28;20416;-60
2021/03/24 07:36:26;;;;;;;24.37;15.73;;;;;;;;;;5045195;28;20430;-62
2021/03/24 07:38:55;;;;;;;24.67;15.67;;;;;;;;;;5028127;28;20551;-60
2021/03/24 07:41:34;;;;;;;23.97;16.77;;;;;;;;;;5052294;28;20181;-60
2021/03/24 07:44:08;;;;;;;23.37;16.27;;;;;;;;;;5047913;28;20192;-60
2021/03/24 07:46:40;;;;;;;23.83;15.00;;;;;;;;;;5060194;28;20427;-60
2021/03/24 07:49:19;;;;;;;25.43;15.57;;;;;;;;;;5051350;28;20444;-60
2021/03/24 07:51:58;;;;;;;24.10;15.90;;;;;;;;;;5051749;28;20425;-60
2021/03/24 07:54:47;;;;;;;21.00;15.27;;;;;;;;;;5052133;28;20406;-60
2021/03/24 07:57:35;;;;;;;22.53;16.17;;;;;;;;;;5034019;28;20542;-60
2021/03/24 08:00:17;;;;;;;26.17;16.27;;;;;;;;;;5033321;28;20396;-60
2021/03/24 08:02:57;;;;;;;24.00;16.57;;;;;;;;;;5036426;28;20187;-61
2021/03/24 08:05:59;;;;;;;24.67;16.93;;;;;;;;;;5033562;28;20197;-60
2021/03/24 08:08:44;;;;;;;24.47;15.93;;;;;;;;;;4965821;28;20920;-60
2021/03/24 08:11:31;;;;;;;27.93;15.27;;;;;;;;;;5015098;28;20205;-59
2021/03/24 08:14:00;;;;;;;24.53;16.30;;;;;;;;;;5029327;28;20185;-62
2021/03/24 08:16:44;;;;;;;24.37;16.83;;;;;;;;;;5038180;28;20635;-60
2021/03/24 08:19:21;;;;;;;28.20;16.53;;;;;;;;;;5024407;28;20181;-60
2021/03/24 08:22:03;;;;;;;22.20;16.03;;;;;;;;;;5052080;28;20714;-60
2021/03/24 08:24:29;;;;;;;25.33;16.33;;;;;;;;;;5051966;28;20189;-60
2021/03/24 08:26:56;;;;;;;23.90;17.27;;;;;;;;;;5051227;28;20255;-62
2021/03/24 08:29:22;;;;;;;24.83;17.17;;;;;;;;;;5019355;28;21206;-60
2021/03/24 08:31:54;;;;;;;26.23;16.97;;;;;;;;;;5014162;28;20266;-60
2021/03/24 08:34:39;;;;;;;22.93;17.23;;;;;;;;;;5039073;28;20244;-60
2021/03/24 08:37:14;;;;;;;23.33;16.37;;;;;;;;;;5051699;28;20223;-60
2021/03/24 08:39:49;;;;;;;24.60;17.30;;;;;;;;;;5048365;28;20198;-61
2021/03/24 08:42:27;;;;;;;26.63;17.43;;;;;;;;;;5016527;28;20671;-61
2021/03/24 08:45:14;;;;;;;28.70;19.37;;;;;;;;;;5033148;28;20220;-62
2021/03/24 08:47:41;;;;;;;29.50;19.23;;;;;;;;;;5029715;28;20204;-62
2021/03/24 08:50:13;;;;;;;26.23;18.47;;;;;;;;;;5049460;28;20715;-62
2021/03/24 08:52:44;;;;;;;24.70;19.17;;;;;;;;;;5049746;28;20267;-62
2021/03/24 08:55:29;;;;;;;24.00;19.43;;;;;;;;;;5050863;28;20169;-62
2021/03/24 08:58:13;;;;;;;23.97;20.50;;;;;;;;;;5027304;28;20209;-62
2021/03/24 09:00:58;;;;;;;26.57;19.20;;;;;;;;;;5044794;28;20169;-62
2021/03/24 09:03:24;;;;;;;30.87;21.60;;;;;;;;;;5028987;28;20190;-62
2021/03/24 09:06:05;;;;;;;26.10;20.60;;;;;;;;;;5044090;28;20585;-62
2021/03/24 09:08:31;;;;;;;27.43;21.03;;;;;;;;;;5040574;28;20176;-61
2021/03/24 09:11:16;;;;;;;39.33;22.20;;;;;;;;;;5046736;28;20626;-61
2021/03/24 09:13:45;;;;;;;26.07;21.33;;;;;;;;;;5026839;28;20646;-61
2021/03/24 09:16:31;;;;;;;27.10;21.27;;;;;;;;;;5048455;28;20175;-63
2021/03/24 09:19:00;;;;;;;30.17;22.17;;;;;;;;;;5026855;28;20179;-62
2021/03/24 09:21:28;;;;;;;25.00;21.00;;;;;;;;;;5013827;28;20265;-62
2021/03/24 09:24:24;;;;;;;29.23;22.77;;;;;;;;;;5037730;28;20652;-62
2021/03/24 09:27:06;;;;;;;29.20;21.10;;;;;;;;;;5013747;28;20186;-61
2021/03/24 09:29:35;;;;;;;28.90;22.07;;;;;;;;;;5020142;28;20228;-62
2021/03/24 09:32:04;;;;;;;28.13;20.50;;;;;;;;;;5030500;28;20202;-61
2021/03/24 09:34:49;;;;;;;27.83;21.17;;;;;;;;;;5033416;28;20192;-61
2021/03/24 09:37:24;;;;;;;27.07;20.70;;;;;;;;;;5011902;28;20285;-62
2021/03/24 09:39:58;;;;;;;28.60;19.90;;;;;;;;;;5049786;28;20169;-62
2021/03/24 09:42:33;;;;;;;29.23;22.03;;;;;;;;;;5023735;28;20202;-61
2021/03/24 09:45:06;;;;;;;25.47;21.60;;;;;;;;;;5042120;28;20265;-62
2021/03/24 09:47:47;;;;;;;29.63;21.53;;;;;;;;;;5018962;28;20808;-62
2021/03/24 09:50:16;;;;;;;30.73;20.10;;;;;;;;;;5041668;28;20691;-62
2021/03/24 09:52:49;;;;;;;32.47;20.90;;;;;;;;;;5015238;28;20208;-62
2021/03/24 09:55:33;;;;;;;29.93;21.50;;;;;;;;;;5049584;28;20561;-61
2021/03/24 09:58:03;;;;;;;30.37;20.83;;;;;;;;;;5027834;28;20467;-60
2021/03/24 10:00:29;;;;;;;28.87;20.27;;;;;;;;;;5026272;28;20263;-61
2021/03/24 10:02:55;;;;;;;31.13;20.47;;;;;;;;;;5060328;28;20193;-60
2021/03/24 10:05:36;;;;;;;26.70;19.13;;;;;;;;;;5064122;28;20536;-60
2021/03/24 10:08:07;;;;;;;30.40;18.87;;;;;;;;;;5061368;28;20181;-60
2021/03/24 10:10:36;;;;;;;27.93;19.07;;;;;;;;;;5048057;28;20172;-60
2021/03/24 10:13:05;;;;;;;23.47;17.20;;;;;;;;;;5056544;28;20168;-60
2021/03/24 10:15:34;;;;;;;27.10;19.03;;;;;;;;;;5070164;28;20654;-60
2021/03/24 10:18:14;;;;;;;25.53;16.70;;;;;;;;;;5066307;28;20176;-61
2021/03/24 10:20:44;;;;;;;25.27;16.40;;;;;;;;;;5032676;28;20173;-61
2021/03/24 10:23:27;;;;;;;29.95;20.30;;;;;;;;;;5070611;28;20418;-60
2021/03/24 10:25:56;;;;;;;25.57;18.47;;;;;;;;;;5070942;28;20153;-62
2021/03/24 10:28:42;;;;;;;27.57;17.87;;;;;;;;;;5070089;28;20210;-61
2021/03/24 10:31:19;;;;;;;25.60;16.67;;;;;;;;;;5033400;28;20181;-61
2021/03/24 10:33:55;;;;;;;22.73;17.00;;;;;;;;;;5057439;28;20646;-62
2021/03/24 10:36:25;;;;;;;30.23;17.40;;;;;;;;;;5051407;28;20173;-60
2021/03/24 10:39:04;;;;;;;25.63;16.37;;;;;;;;;;5062150;28;20744;-60
2021/03/24 10:41:42;;;;;;;22.93;16.80;;;;;;;;;;5046317;28;20211;-63
2021/03/24 10:44:18;;;;;;;23.70;16.03;;;;;;;;;;5042290;28;20188;-62
2021/03/24 10:47:05;;;;;;;23.80;16.83;;;;;;;;;;5067881;28;20172;-63
2021/03/24 10:49:38;;;;;;;27.50;17.00;;;;;;;;;;5063952;28;20228;-63
2021/03/24 10:52:06;;;;;;;26.43;16.47;;;;;;;;;;5053952;28;20238;-65
2021/03/24 10:54:34;;;;;;;24.60;16.00;;;;;;;;;;5062460;28;20234;-62
2021/03/24 10:57:19;;;;;;;24.07;15.83;;;;;;;;;;5056436;28;20226;-64
2021/03/24 10:59:51;;;;;;;23.87;17.27;;;;;;;;;;5073062;28;20179;-62
2021/03/24 11:02:29;;;;;;;23.93;17.70;;;;;;;;;;5084040;28;20521;-62
2021/03/24 11:04:58;;;;;;;23.30;17.20;;;;;;;;;;5075605;28;20673;-62
2021/03/24 11:07:40;;;;;;;27.07;18.77;;;;;;;;;;5075683;28;20176;-62
2021/03/24 11:10:27;;;;;;;24.00;16.73;;;;;;;;;;5064217;28;20667;-62
2021/03/24 11:12:57;;;;;;;23.73;16.80;;;;;;;;;;5068433;28;20200;-62
2021/03/24 11:15:26;;;;;;;25.87;18.07;;;;;;;;;;5072675;28;20186;-62
2021/03/24 11:18:04;;;;;;;26.67;16.87;;;;;;;;;;5046679;28;20188;-63
2021/03/24 11:20:42;;;;;;;26.97;16.40;;;;;;;;;;5077161;28;20254;-63
2021/03/24 11:23:10;;;;;;;30.37;17.37;;;;;;;;;;5049017;28;20180;-63
2021/03/24 11:25:51;;;;;;;29.37;16.57;;;;;;;;;;5077167;28;20220;-63
2021/03/24 11:28:20;;;;;;;24.03;16.47;;;;;;;;;;5072307;28;20168;-63
2021/03/24 11:30:48;;;;;;;21.00;15.97;;;;;;;;;;5059753;28;20184;-61
2021/03/24 11:33:18;;;;;;;25.50;16.30;;;;;;;;;;5074976;28;20196;-61
2021/03/24 11:35:53;;;;;;;25.77;18.03;;;;;;;;;;5053580;28;20631;-61
2021/03/24 11:38:26;;;;;;;28.17;17.57;;;;;;;;;;5044610;28;20230;-61
2021/03/24 11:41:02;;;;;;;30.93;17.93;;;;;;;;;;5062473;28;20526;-62
2021/03/24 11:43:32;;;;;;;24.80;16.30;;;;;;;;;;5065275;28;20215;-62
2021/03/24 11:46:21;;;;;;;23.80;17.83;;;;;;;;;;5077308;28;20518;-61
2021/03/24 11:49:08;;;;;;;23.30;17.00;;;;;;;;;;5064833;28;20681;-60
2021/03/24 11:51:34;;;;;;;26.03;18.13;;;;;;;;;;5074287;28;20521;-61
2021/03/24 11:54:09;;;;;;;27.60;17.07;;;;;;;;;;5082538;28;20194;-64
2021/03/24 11:57:00;;;;;;;23.37;17.13;;;;;;;;;;5037034;28;20180;-61
2021/03/24 11:59:38;;;;;;;26.47;17.70;;;;;;;;;;5059975;28;20185;-62
2021/03/24 12:02:15;;;;;;;24.60;17.30;;;;;;;;;;5063263;28;20180;-62
2021/03/24 12:05:00;;;;;;;26.80;18.00;;;;;;;;;;5065127;28;20211;-63
2021/03/24 12:07:33;;;;;;;26.83;17.07;;;;;;;;;;5047011;28;20200;-63
2021/03/24 12:10:22;;;;;;;25.23;18.00;;;;;;;;;;5052065;28;20510;-63
2021/03/24 12:12:59;;;;;;;23.10;16.73;;;;;;;;;;5052814;28;20180;-64
2021/03/24 12:15:26;;;;;;;27.40;17.87;;;;;;;;;;5059915;28;20226;-65
2021/03/24 12:18:02;;;;;;;28.23;18.37;;;;;;;;;;5053653;28;20176;-64
2021/03/24 12:20:28;;;;;;;27.60;17.70;;;;;;;;;;5040095;28;20172;-64
2021/03/24 12:22:56;;;;;;;27.97;18.87;;;;;;;;;;5078160;28;20195;-67
2021/03/24 12:25:22;;;;;;;27.03;18.77;;;;;;;;;;5049677;28;20199;-64
2021/03/24 12:28:03;;;;;;;26.83;18.27;;;;;;;;;;5061545;28;20185;-63
2021/03/24 12:30:33;;;;;;;29.03;17.47;;;;;;;;;;5046053;28;20187;-63
2021/03/24 12:33:14;;;;;;;25.97;18.03;;;;;;;;;;5051350;28;20172;-64
2021/03/24 12:35:41;;;;;;;25.87;18.33;;;;;;;;;;5072643;28;20180;-64
2021/03/24 12:38:14;;;;;;;26.87;18.10;;;;;;;;;;5044287;28;20229;-63
2021/03/24 12:40:51;;;;;;;23.87;17.43;;;;;;;;;;5074536;28;20209;-63
2021/03/24 12:43:27;;;;;;;23.43;16.50;;;;;;;;;;5076484;28;20180;-62
2021/03/24 12:45:54;;;;;;;26.20;18.03;;;;;;;;;;5068731;28;20306;-64
2021/03/24 12:48:20;;;;;;;22.73;16.67;;;;;;;;;;5072369;28;20778;-65
2021/03/24 12:50:54;;;;;;;27.70;16.83;;;;;;;;;;5067021;28;20289;-62
2021/03/24 12:53:26;;;;;;;28.40;18.03;;;;;;;;;;5042502;28;20181;-65
2021/03/24 12:56:02;;;;;;;28.53;17.00;;;;;;;;;;5062234;28;20580;-65
2021/03/24 12:58:38;;;;;;;25.87;17.77;;;;;;;;;;5066266;28;20195;-64
2021/03/24 13:01:22;;;;;;;25.33;17.23;;;;;;;;;;5038334;28;20182;-63
2021/03/24 13:04:15;;;;;;;27.50;16.20;;;;;;;;;;5043456;28;20295;-63
2021/03/24 13:06:57;;;;;;;22.70;17.50;;;;;;;;;;5052011;28;20186;-65
2021/03/24 13:09:37;;;;;;;22.53;16.40;;;;;;;;;;5057049;28;20579;-64
2021/03/24 13:12:08;;;;;;;25.47;18.17;;;;;;;;;;5071386;28;20924;-66
2021/03/24 13:14:45;;;;;;;26.47;17.53;;;;;;;;;;5069704;28;20183;-64
2021/03/24 13:17:19;;;;;;;24.23;18.57;;;;;;;;;;5057643;28;20238;-65
2021/03/24 13:19:51;;;;;;;25.33;17.17;;;;;;;;;;5055322;28;20182;-65
2021/03/24 13:22:21;;;;;;;25.37;17.63;;;;;;;;;;5042094;28;20209;-65
2021/03/24 13:25:05;;;;;;;25.03;17.10;;;;;;;;;;5044896;28;20215;-68
2021/03/24 13:27:31;;;;;;;26.60;16.60;;;;;;;;;;5044971;28;20201;-65
2021/03/24 13:29:57;;;;;;;25.00;16.17;;;;;;;;;;5037490;28;20194;-66
2021/03/24 13:32:29;;;;;;;26.07;17.13;;;;;;;;;;5052711;28;20516;-66
2021/03/24 13:35:02;;;;;;;19.33;14.20;;;;;;;;;;5061613;28;20178;-65
2021/03/24 13:37:28;;;;;;;20.70;14.80;;;;;;;;;;5043415;28;20181;-64
2021/03/24 13:39:59;;;;;;;21.43;15.60;;;;;;;;;;5065274;28;20224;-65
2021/03/24 13:42:25;;;;;;;24.37;16.93;;;;;;;;;;5055379;28;20191;-62
2021/03/24 13:44:56;;;;;;;25.03;16.13;;;;;;;;;;5066566;28;20204;-61
2021/03/24 13:47:31;;;;;;;22.97;17.10;;;;;;;;;;5061187;28;20184;-61
2021/03/24 13:50:17;;;;;;;27.03;16.80;;;;;;;;;;5039913;28;20200;-62
2021/03/24 13:52:47;;;;;;;22.80;16.13;;;;;;;;;;5034459;28;20183;-63
2021/03/24 13:55:32;;;;;;;25.03;15.60;;;;;;;;;;5035565;28;20196;-64
2021/03/24 13:58:17;;;;;;;25.90;15.80;;;;;;;;;;5056555;28;20176;-62
2021/03/24 14:00:48;;;;;;;24.97;16.27;;;;;;;;;;5068750;28;20180;-62
2021/03/24 14:03:25;;;;;;;20.83;14.97;;;;;;;;;;5052324;28;20176;-62
2021/03/24 14:05:58;;;;;;;22.37;13.53;;;;;;;;;;5037546;28;20544;-63
2021/03/24 14:08:24;;;;;;;20.40;13.80;;;;;;;;;;5068894;28;20172;-62
2021/03/24 14:10:58;;;;;;;19.57;13.97;;;;;;;;;;5090912;28;20530;-63
2021/03/24 14:13:31;;;;;;;23.77;14.53;;;;;;;;;;5061337;28;20666;-63
2021/03/24 14:16:29;;;;;;;20.43;14.70;;;;;;;;;;5039916;28;20191;-63
2021/03/24 14:19:13;;;;;;;18.50;14.37;;;;;;;;;;5021569;28;20252;-64
2021/03/24 14:21:46;;;;;;;17.87;13.17;;;;;;;;;;5046082;28;20180;-63
2021/03/24 14:24:19;;;;;;;21.27;14.67;;;;;;;;;;5066029;28;20192;-63
2021/03/24 14:26:56;;;;;;;21.73;14.40;;;;;;;;;;5051962;28;20211;-64
2021/03/24 14:29:22;;;;;;;21.00;13.53;;;;;;;;;;5066180;28;20199;-63
2021/03/24 14:32:08;;;;;;;19.20;14.13;;;;;;;;;;5064750;28;20180;-64
2021/03/24 14:34:56;;;;;;;21.83;13.60;;;;;;;;;;5066763;28;20465;-63
2021/03/24 14:37:34;;;;;;;22.57;14.47;;;;;;;;;;5079484;28;20173;-64
2021/03/24 14:40:00;;;;;;;20.70;14.57;;;;;;;;;;5064479;28;20191;-61
2021/03/24 14:42:34;;;;;;;22.03;13.60;;;;;;;;;;5059468;28;20620;-63
2021/03/24 14:45:19;;;;;;;20.60;14.00;;;;;;;;;;5069009;28;20220;-64
2021/03/24 14:48:04;;;;;;;21.40;14.10;;;;;;;;;;5079875;28;20634;-65
2021/03/24 14:50:42;;;;;;;19.53;13.37;;;;;;;;;;5064585;28;20295;-64
2021/03/24 14:53:12;;;;;;;19.70;13.60;;;;;;;;;;5052509;28;20184;-65
2021/03/24 14:55:47;;;;;;;21.80;13.03;;;;;;;;;;5069962;28;20263;-65